KFRH/FRH METAR and TAF weather

Enter ICAO airport designator
Station Type Date Time Source
KFRH METAR 2019/08/25 03:35 UTC NOAA

KFRH 250335Z AUTO 06004KT 10SM CLR 17/12 A3014 RMK AO1


Station Type Date Time Source
KFRH Decoded METAR 2019/08/25 03:35 UTC NOAA

Station name not available
Aug 24, 2019 - 11:35 PM EDT / 2019.08.25 0335 UTC
Wind: from the ENE (060 degrees) at 5 MPH (4 KT):0
Visibility: 10 mile(s):0
Sky conditions: clear
Temperature: 62 F (17 C)
Dew Point: 53 F (12 C)
Relative Humidity: 72%
Pressure (altimeter): 30.14 in. Hg (1020 hPa)
ob: KFRH 250335Z AUTO 06004KT 10SM CLR 17/12 A3014 RMK AO1
cycle: 3

Station Type Date Time Source
KFRH TAF UTC NOAA

Error!

Example: see airport list